Airfield :
LOGIN :

Register | Disclaimer

   EN    FR    IT 

 










Legend :    VFR   Marginal VFR   IFR   Intensive IFR   Very Intensive IFR
Visi :
Ceiling :
>= 8 km
>= 3000ft
5 to 8 km
1000 to 3000 ft
1500m to 5 km
500 to 1000 ft
800 to 1500m
200 to 500 ft
< 800m
< 200 ft
Symbols :   Thunderstorms  Fog  Heavy snow  Heavy precipitations  Wind > 20 kt
SIGMETs :     Misc.  Thunderstorms  Icing  Turbulence  Mountain Waves  Volcanic Ashes






- Airport Elevation : 302 ft
- IATA code : MAH


LEMH - Menorca

CURRENT METAR :
  • 180600Z 00000KT 9999 FEW040 12/11 Q1006

EXPIRED METARs :
  • 180530Z 00000KT 9999 FEW040 12/11 Q1006
  • 180500Z VRB02KT 9999 FEW025 12/11 Q1006
  • 180430Z AUTO 32003KT 280V350 9999 -RA NCD 12/11 Q1006
  • 180400Z AUTO 32004KT 280V360 9999 -RA FEW016/// 12/11 Q1006
  • 180330Z AUTO 28005KT 240V320 9000 RA FEW015 SCT027 BKN038 ///CB 13/11 Q1006

TAF AMD TAF LEMH
Valid from the 18 at 04:00 until the 19 at 03:00 UTC


180408Z 1804/1903 36008KT 9999 SCT035 TX14/1812Z TN08/1806Z
PROB40
TEMPO 1804/1818 RA BKN030
PROB40
TEMPO 1816/1823 34015G27KT



MET'MAP, your aeronautical weather chart ! - Copyright ORBIFLY December 2007 - Disclaimer

ORBIFLY MET'MAP TEAM :

Programming & Development : Alexandra Zaïnal
Concept & Development : Baudouin d'Aumeries
Co-Development & Prog : Marc-Olivier Méhu
Technical & hardware support : Manuel Goepfert

Contact : metmap@orbifly.com




SOURCES & CREDITS :

   NOAA